Wetterdaten: Woche 25.04.11 - 01.05.11 (KW17)
Datum Zeit Temp. Innen Temp. Aussen UV X Diff Temp. Feuchte Inne Feuchte Auss Sonnenschein Luftdruck Regen ab 0,1 Wind Sonnenschein T Regendauer Windben
25.04.2011 00:00 22,5 C 15,2 C 0,0 UV-I 0,0 C 45 % 52 % 0 % 1020,4 hPa 0,0 l/m 0,0 km/h (0 Bft) 0,00 h 0,00 h 0,0 km/h (0 Bft)
25.04.2011 01:00 22,2 C 14,1 C 0,0 UV-I 0,0 C 45 % 56 % 0 % 1020,6 hPa 0,0 l/m 0,0 km/h (0 Bft) 0,00 h 0,00 h 0,0 km/h (0 Bft)
25.04.2011 02:00 21,9 C 13,7 C 0,0 UV-I 0,0 C 46 % 58 % 0 % 1020,7 hPa 0,0 l/m 0,3 km/h (0 Bft) 0,00 h 0,00 h 0,6 km/h (0 Bft)
25.04.2011 03:00 21,7 C 12,5 C 0,0 UV-I 0,0 C 46 % 62 % 0 % 1020,8 hPa 0,0 l/m 0,0 km/h (0 Bft) 0,00 h 0,00 h 0,0 km/h (0 Bft)
25.04.2011 04:00 21,4 C 10,9 C 0,0 UV-I 0,0 C 46 % 68 % 0 % 1020,9 hPa 0,0 l/m 0,0 km/h (0 Bft) 0,00 h 0,00 h 0,0 km/h (0 Bft)
25.04.2011 05:00 21,2 C 10,0 C 0,0 UV-I 0,0 C 47 % 73 % 0 % 1021,3 hPa 0,0 l/m 0,0 km/h (0 Bft) 0,00 h 0,00 h 0,0 km/h (0 Bft)
25.04.2011 06:00 20,9 C 9,6 C 0,0 UV-I 0,0 C 46 % 75 % 0 % 1021,1 hPa 0,0 l/m 0,0 km/h (0 Bft) 0,00 h 0,00 h 0,0 km/h (0 Bft)
25.04.2011 07:00 20,8 C 9,2 C 0,3 UV-I 0,0 C 47 % 77 % 0 % 1021,6 hPa 0,0 l/m 0,0 km/h (0 Bft) 0,00 h 0,00 h 0,0 km/h (0 Bft)
25.04.2011 08:00 20,8 C 12,7 C 1,1 UV-I 2,6 C 47 % 71 % 47 % 1021,9 hPa 0,0 l/m 0,6 km/h (0 Bft) 0,43 h 0,00 h 1,7 km/h (1 Bft)
25.04.2011 09:00 20,9 C 16,8 C 3,2 UV-I 6,9 C 47 % 55 % 100 % 1022,0 hPa 0,0 l/m 3,2 km/h (1 Bft) 1,00 h 0,00 h 6,0 km/h (2 Bft)
25.04.2011 10:00 21,1 C 20,2 C 7,1 UV-I 7,1 C 47 % 44 % 100 % 1022,2 hPa 0,0 l/m 4,0 km/h (1 Bft) 1,00 h 0,00 h 7,0 km/h (2 Bft)
25.04.2011 11:00 21,3 C 22,3 C 8,2 UV-I 6,3 C 46 % 31 % 100 % 1022,2 hPa 0,0 l/m 7,2 km/h (2 Bft) 1,00 h 0,00 h 10,2 km/h (2 Bft)
25.04.2011 12:00 21,7 C 23,4 C 3,6 UV-I 6,0 C 45 % 29 % 100 % 1021,9 hPa 0,0 l/m 7,0 km/h (2 Bft) 1,00 h 0,00 h 8,6 km/h (2 Bft)
25.04.2011 13:00 22,3 C 24,1 C 7,1 UV-I 6,3 C 43 % 27 % 100 % 1021,9 hPa 0,0 l/m 6,7 km/h (2 Bft) 1,00 h 0,00 h 10,1 km/h (2 Bft)
25.04.2011 14:00 23,4 C 24,5 C 7,0 UV-I 6,2 C 41 % 27 % 100 % 1022,0 hPa 0,0 l/m 6,7 km/h (2 Bft) 1,00 h 0,00 h 8,3 km/h (2 Bft)
25.04.2011 15:00 24,5 C 25,0 C 8,1 UV-I 5,9 C 39 % 25 % 100 % 1022,1 hPa 0,0 l/m 6,9 km/h (2 Bft) 1,00 h 0,00 h 11,3 km/h (2 Bft)
25.04.2011 16:00 25,3 C 25,1 C 8,0 UV-I 5,1 C 39 % 24 % 100 % 1021,9 hPa 0,0 l/m 8,3 km/h (2 Bft) 1,00 h 0,00 h 11,3 km/h (2 Bft)
25.04.2011 17:00 25,7 C 25,0 C 4,5 UV-I 4,0 C 38 % 24 % 93 % 1021,8 hPa 0,0 l/m 7,4 km/h (2 Bft) 0,83 h 0,00 h 10,4 km/h (2 Bft)
25.04.2011 18:00 25,3 C 23,8 C 1,5 UV-I 0,2 C 40 % 27 % 6 % 1021,1 hPa 0,0 l/m 5,0 km/h (1 Bft) 0,00 h 0,00 h 7,2 km/h (2 Bft)
25.04.2011 19:00 24,7 C 22,6 C 0,6 UV-I 0,0 C 42 % 30 % 0 % 1021,0 hPa 0,0 l/m 4,4 km/h (1 Bft) 0,00 h 0,00 h 6,1 km/h (2 Bft)
25.04.2011 20:00 24,2 C 20,7 C 0,0 UV-I 0,0 C 43 % 35 % 0 % 1020,9 hPa 0,0 l/m 1,3 km/h (1 Bft) 0,00 h 0,00 h 2,5 km/h (1 Bft)
25.04.2011 21:00 23,8 C 19,0 C 0,0 UV-I 0,0 C 44 % 40 % 0 % 1021,2 hPa 0,0 l/m 0,5 km/h (0 Bft) 0,00 h 0,00 h 1,1 km/h (0 Bft)
25.04.2011 22:00 23,3 C 17,7 C 0,0 UV-I 0,0 C 45 % 40 % 0 % 1021,8 hPa 0,0 l/m 0,3 km/h (0 Bft) 0,00 h 0,00 h 0,6 km/h (0 Bft)
25.04.2011 23:00 22,8 C 16,1 C 0,0 UV-I 0,0 C 45 % 44 % 0 % 1021,9 hPa 0,0 l/m 0,0 km/h (0 Bft) 0,00 h 0,00 h 0,3 km/h (0 Bft)
26.04.2011 00:00 22,4 C 13,9 C 0,0 UV-I 0,0 C 45 % 52 % 0 % 1022,1 hPa 0,0 l/m 0,0 km/h (0 Bft) 0,00 h 0,00 h 0,0 km/h (0 Bft)
26.04.2011 01:00 22,1 C 12,1 C 0,0 UV-I 0,0 C 45 % 59 % 0 % 1022,0 hPa 0,0 l/m 0,0 km/h (0 Bft) 0,00 h 0,00 h 0,0 km/h (0 Bft)
26.04.2011 02:00 21,7 C 10,8 C 0,0 UV-I 0,0 C 45 % 65 % 0 % 1021,7 hPa 0,0 l/m 0,0 km/h (0 Bft) 0,00 h 0,00 h 0,0 km/h (0 Bft)
26.04.2011 03:00 21,5 C 9,8 C 0,0 UV-I 0,0 C 46 % 69 % 0 % 1022,0 hPa 0,0 l/m 0,0 km/h (0 Bft) 0,00 h 0,00 h 0,0 km/h (0 Bft)
26.04.2011 04:00 21,2 C 9,0 C 0,1 UV-I 0,0 C 45 % 73 % 0 % 1022,3 hPa 0,0 l/m 0,0 km/h (0 Bft) 0,00 h 0,00 h 0,0 km/h (0 Bft)
26.04.2011 05:00 20,9 C 8,4 C 0,1 UV-I 0,0 C 46 % 76 % 0 % 1022,0 hPa 0,0 l/m 0,0 km/h (0 Bft) 0,00 h 0,00 h 0,0 km/h (0 Bft)
26.04.2011 06:00 20,7 C 7,9 C 0,1 UV-I 0,0 C 46 % 78 % 0 % 1021,8 hPa 0,0 l/m 0,0 km/h (0 Bft) 0,00 h 0,00 h 0,0 km/h (0 Bft)
26.04.2011 07:00 20,6 C 8,1 C 0,4 UV-I 0,0 C 46 % 80 % 0 % 1022,1 hPa 0,0 l/m 0,1 km/h (0 Bft) 0,00 h 0,00 h 0,4 km/h (0 Bft)
26.04.2011 08:00 20,5 C 11,3 C 1,1 UV-I 2,5 C 47 % 77 % 49 % 1022,4 hPa 0,0 l/m 1,5 km/h (1 Bft) 0,43 h 0,00 h 3,0 km/h (1 Bft)
26.04.2011 09:00 20,7 C 15,5 C 2,9 UV-I 6,2 C 48 % 61 % 100 % 1022,4 hPa 0,0 l/m 5,4 km/h (1 Bft) 0,93 h 0,00 h 8,8 km/h (2 Bft)
26.04.2011 10:00 20,9 C 17,7 C 5,6 UV-I 5,4 C 48 % 50 % 100 % 1022,3 hPa 0,0 l/m 10,6 km/h (2 Bft) 1,00 h 0,00 h 15,3 km/h (3 Bft)
26.04.2011 11:00 21,2 C 19,1 C 6,3 UV-I 6,2 C 47 % 46 % 100 % 1022,6 hPa 0,0 l/m 9,0 km/h (2 Bft) 1,00 h 0,00 h 11,1 km/h (2 Bft)
26.04.2011 12:00 21,4 C 20,1 C 3,9 UV-I 5,5 C 47 % 42 % 100 % 1022,6 hPa 0,0 l/m 10,0 km/h (2 Bft) 1,00 h 0,00 h 14,7 km/h (3 Bft)
26.04.2011 13:00 22,1 C 20,8 C 5,8 UV-I 5,7 C 45 % 36 % 100 % 1022,4 hPa 0,0 l/m 11,0 km/h (2 Bft) 1,00 h 0,00 h 16,5 km/h (3 Bft)
26.04.2011 14:00 23,1 C 21,8 C 6,1 UV-I 5,6 C 43 % 34 % 100 % 1022,4 hPa 0,0 l/m 10,7 km/h (2 Bft) 1,00 h 0,00 h 12,7 km/h (3 Bft)
26.04.2011 15:00 24,0 C 22,7 C 5,9 UV-I 4,9 C 41 % 32 % 99 % 1022,1 hPa 0,0 l/m 11,5 km/h (2 Bft) 0,97 h 0,00 h 13,6 km/h (3 Bft)
26.04.2011 16:00 24,5 C 22,3 C 5,1 UV-I 3,8 C 39 % 35 % 93 % 1021,7 hPa 0,0 l/m 11,9 km/h (2 Bft) 0,83 h 0,40 h 17,4 km/h (3 Bft)
26.04.2011 17:00 24,8 C 22,3 C 3,3 UV-I 3,2 C 39 % 35 % 87 % 1021,3 hPa 0,0 l/m 11,7 km/h (2 Bft) 0,70 h 0,00 h 13,7 km/h (3 Bft)
26.04.2011 18:00 24,4 C 21,6 C 1,2 UV-I 0,4 C 39 % 37 % 10 % 1020,4 hPa 0,0 l/m 11,0 km/h (2 Bft) 0,00 h 0,00 h 15,9 km/h (3 Bft)
26.04.2011 19:00 23,9 C 20,7 C 0,5 UV-I 0,0 C 39 % 41 % 0 % 1019,9 hPa 0,0 l/m 8,7 km/h (2 Bft) 0,00 h 0,00 h 10,5 km/h (2 Bft)
26.04.2011 20:00 23,5 C 19,7 C 0,1 UV-I 0,0 C 41 % 43 % 0 % 1020,0 hPa 0,0 l/m 12,4 km/h (3 Bft) 0,00 h 0,00 h 15,0 km/h (3 Bft)
26.04.2011 21:00 22,9 C 18,0 C 0,0 UV-I 0,0 C 42 % 49 % 0 % 1020,3 hPa 0,0 l/m 13,3 km/h (3 Bft) 0,00 h 0,00 h 15,4 km/h (3 Bft)
26.04.2011 22:00 22,4 C 16,7 C 0,0 UV-I 0,0 C 43 % 51 % 0 % 1019,3 hPa 0,0 l/m 11,2 km/h (2 Bft) 0,00 h 0,00 h 12,6 km/h (3 Bft)
26.04.2011 23:00 22,0 C 15,5 C 0,0 UV-I 0,0 C 44 % 54 % 0 % 1019,4 hPa 0,0 l/m 11,4 km/h (2 Bft) 0,00 h 0,00 h 15,1 km/h (3 Bft)
27.04.2011 00:00 21,7 C 14,0 C 0,0 UV-I 0,0 C 44 % 58 % 0 % 1019,5 hPa 0,0 l/m 9,5 km/h (2 Bft) 0,00 h 0,00 h 11,5 km/h (2 Bft)
27.04.2011 01:00 21,5 C 12,6 C 0,1 UV-I 0,0 C 45 % 63 % 0 % 1019,4 hPa 0,0 l/m 8,9 km/h (2 Bft) 0,00 h 0,00 h 12,4 km/h (3 Bft)
27.04.2011 02:00 21,2 C 11,3 C 0,1 UV-I 0,0 C 45 % 69 % 0 % 1019,3 hPa 0,0 l/m 10,6 km/h (2 Bft) 0,00 h 0,00 h 13,3 km/h (3 Bft)
27.04.2011 03:00 20,8 C 10,2 C 0,0 UV-I 0,0 C 45 % 72 % 0 % 1019,0 hPa 0,0 l/m 8,6 km/h (2 Bft) 0,00 h 0,00 h 11,8 km/h (2 Bft)
27.04.2011 04:00 20,6 C 9,6 C 0,1 UV-I 0,0 C 46 % 75 % 0 % 1019,0 hPa 0,0 l/m 8,3 km/h (2 Bft) 0,00 h 0,00 h 10,5 km/h (2 Bft)
27.04.2011 05:00 20,4 C 9,1 C 0,1 UV-I 0,0 C 46 % 77 % 0 % 1019,1 hPa 0,0 l/m 8,3 km/h (2 Bft) 0,00 h 0,00 h 9,7 km/h (2 Bft)
27.04.2011 06:00 20,2 C 8,8 C 0,0 UV-I 0,0 C 46 % 80 % 0 % 1019,1 hPa 0,0 l/m 8,8 km/h (2 Bft) 0,00 h 0,00 h 10,2 km/h (2 Bft)
27.04.2011 07:00 20,0 C 8,7 C 0,2 UV-I 0,0 C 47 % 82 % 0 % 1019,4 hPa 0,0 l/m 8,4 km/h (2 Bft) 0,00 h 0,00 h 9,5 km/h (2 Bft)
27.04.2011 08:00 20,0 C 9,0 C 0,6 UV-I 0,1 C 47 % 85 % 3 % 1019,3 hPa 0,1 l/m 9,3 km/h (2 Bft) 0,00 h 0,00 h 12,0 km/h (2 Bft)
27.04.2011 09:00 20,0 C 9,6 C 0,6 UV-I 0,2 C 48 % 85 % 6 % 1019,6 hPa 0,0 l/m 9,5 km/h (2 Bft) 0,00 h 0,13 h 12,0 km/h (2 Bft)
27.04.2011 10:00 19,9 C 9,6 C 0,4 UV-I 0,0 C 48 % 86 % 0 % 1019,8 hPa 0,4 l/m 6,1 km/h (2 Bft) 0,00 h 0,03 h 8,4 km/h (2 Bft)
27.04.2011 11:00 19,8 C 9,6 C 0,4 UV-I 0,0 C 49 % 88 % 0 % 1019,8 hPa 0,3 l/m 7,0 km/h (2 Bft) 0,00 h 0,33 h 8,4 km/h (2 Bft)
27.04.2011 12:00 19,8 C 9,8 C 0,5 UV-I 0,0 C 50 % 89 % 0 % 1019,8 hPa 1,1 l/m 5,7 km/h (1 Bft) 0,00 h 0,90 h 7,4 km/h (2 Bft)
27.04.2011 13:00 19,8 C 10,0 C 0,9 UV-I 0,3 C 51 % 90 % 9 % 1019,3 hPa 0,1 l/m 5,5 km/h (1 Bft) 0,00 h 0,20 h 7,6 km/h (2 Bft)
27.04.2011 14:00 19,8 C 10,4 C 0,7 UV-I 0,2 C 51 % 90 % 4 % 1019,0 hPa 0,4 l/m 6,9 km/h (2 Bft) 0,00 h 0,77 h 9,6 km/h (2 Bft)
27.04.2011 15:00 19,8 C 10,8 C 0,6 UV-I 0,0 C 51 % 90 % 0 % 1018,3 hPa 0,5 l/m 2,7 km/h (1 Bft) 0,00 h 1,00 h 5,3 km/h (1 Bft)
27.04.2011 16:00 19,7 C 11,4 C 0,8 UV-I 0,4 C 52 % 91 % 13 % 1017,8 hPa 0,0 l/m 3,7 km/h (1 Bft) 0,00 h 0,40 h 5,9 km/h (2 Bft)
27.04.2011 17:00 19,8 C 12,1 C 0,6 UV-I 0,6 C 52 % 90 % 18 % 1017,9 hPa 0,0 l/m 0,7 km/h (0 Bft) 0,00 h 0,00 h 1,3 km/h (1 Bft)
27.04.2011 18:00 20,0 C 13,0 C 1,4 UV-I 1,8 C 52 % 90 % 51 % 1017,4 hPa 0,0 l/m 0,9 km/h (0 Bft) 0,00 h 0,00 h 3,2 km/h (1 Bft)
27.04.2011 19:00 20,2 C 13,3 C 0,8 UV-I 0,5 C 52 % 88 % 13 % 1017,1 hPa 0,0 l/m 1,0 km/h (0 Bft) 0,00 h 0,00 h 1,2 km/h (1 Bft)
27.04.2011 20:00 20,1 C 13,0 C 0,1 UV-I 0,0 C 53 % 88 % 0 % 1017,1 hPa 0,0 l/m 0,0 km/h (0 Bft) 0,00 h 0,03 h 0,0 km/h (0 Bft)
27.04.2011 21:00 19,9 C 12,4 C 0,0 UV-I 0,0 C 54 % 89 % 0 % 1017,2 hPa 0,0 l/m 0,0 km/h (0 Bft) 0,00 h 0,07 h 0,0 km/h (0 Bft)
27.04.2011 22:00 19,6 C 11,8 C 0,0 UV-I 0,0 C 54 % 90 % 0 % 1017,0 hPa 0,0 l/m 0,0 km/h (0 Bft) 0,00 h 0,03 h 0,0 km/h (0 Bft)
27.04.2011 23:00 19,6 C 11,4 C 0,1 UV-I 0,0 C 55 % 91 % 0 % 1016,5 hPa 0,0 l/m 0,0 km/h (0 Bft) 0,00 h 0,00 h 0,0 km/h (0 Bft)
28.04.2011 00:00 19,4 C 11,1 C 0,1 UV-I 0,0 C 55 % 92 % 0 % 1016,2 hPa 0,0 l/m 0,0 km/h (0 Bft) 0,00 h 0,07 h 0,0 km/h (0 Bft)
28.04.2011 01:00 19,3 C 11,1 C 0,1 UV-I 0,0 C 56 % 92 % 0 % 1015,9 hPa 0,0 l/m 0,1 km/h (0 Bft) 0,00 h 0,03 h 0,0 km/h (0 Bft)
28.04.2011 02:00 19,3 C 10,8 C 0,1 UV-I 0,0 C 56 % 92 % 0 % 1015,4 hPa 0,0 l/m 0,2 km/h (0 Bft) 0,00 h 0,03 h 0,6 km/h (0 Bft)
28.04.2011 03:00 19,2 C 10,7 C 0,1 UV-I 0,0 C 56 % 92 % 0 % 1015,0 hPa 0,0 l/m 0,2 km/h (0 Bft) 0,00 h 0,00 h 0,5 km/h (0 Bft)
28.04.2011 04:00 19,2 C 10,7 C 0,0 UV-I 0,0 C 56 % 92 % 0 % 1014,6 hPa 0,0 l/m 0,5 km/h (0 Bft) 0,00 h 0,00 h 0,9 km/h (0 Bft)
28.04.2011 05:00 19,1 C 10,6 C 0,1 UV-I 0,0 C 56 % 92 % 0 % 1014,3 hPa 0,0 l/m 0,6 km/h (0 Bft) 0,00 h 0,10 h 1,2 km/h (1 Bft)
28.04.2011 06:00 19,0 C 10,2 C 0,0 UV-I 0,0 C 56 % 93 % 0 % 1013,9 hPa 0,0 l/m 0,0 km/h (0 Bft) 0,00 h 0,00 h 0,0 km/h (0 Bft)
28.04.2011 07:00 19,0 C 10,5 C 0,0 UV-I 0,0 C 56 % 93 % 0 % 1013,9 hPa 0,0 l/m 0,1 km/h (0 Bft) 0,00 h 0,00 h 0,5 km/h (0 Bft)
28.04.2011 08:00 19,1 C 11,3 C 0,4 UV-I 0,0 C 57 % 93 % 0 % 1014,3 hPa 0,0 l/m 2,0 km/h (1 Bft) 0,00 h 0,07 h 3,5 km/h (1 Bft)
28.04.2011 09:00 19,2 C 12,2 C 0,6 UV-I 0,2 C 57 % 92 % 6 % 1014,7 hPa 0,2 l/m 1,5 km/h (1 Bft) 0,00 h 0,10 h 2,4 km/h (1 Bft)
28.04.2011 10:00 19,3 C 12,6 C 1,5 UV-I 0,5 C 57 % 92 % 15 % 1014,8 hPa 0,5 l/m 1,7 km/h (1 Bft) 0,00 h 0,67 h 3,5 km/h (1 Bft)
28.04.2011 11:00 19,5 C 13,1 C 1,5 UV-I 1,2 C 57 % 91 % 35 % 1014,7 hPa 0,0 l/m 2,2 km/h (1 Bft) 0,00 h 0,00 h 4,9 km/h (1 Bft)
28.04.2011 12:00 19,8 C 14,8 C 3,2 UV-I 5,0 C 56 % 85 % 95 % 1014,5 hPa 0,0 l/m 3,3 km/h (1 Bft) 0,87 h 0,00 h 5,2 km/h (1 Bft)
28.04.2011 13:00 20,3 C 16,3 C 3,6 UV-I 5,0 C 55 % 75 % 99 % 1014,2 hPa 0,0 l/m 3,9 km/h (1 Bft) 1,00 h 0,00 h 6,3 km/h (2 Bft)
28.04.2011 14:00 20,7 C 16,7 C 2,2 UV-I 3,1 C 55 % 72 % 80 % 1013,8 hPa 0,0 l/m 4,0 km/h (1 Bft) 0,37 h 0,00 h 7,1 km/h (2 Bft)
28.04.2011 15:00 21,2 C 17,1 C 4,1 UV-I 3,9 C 54 % 71 % 92 % 1013,7 hPa 0,0 l/m 4,9 km/h (1 Bft) 0,73 h 0,00 h 7,6 km/h (2 Bft)
28.04.2011 16:00 22,1 C 17,7 C 3,8 UV-I 3,9 C 52 % 68 % 98 % 1013,6 hPa 0,0 l/m 7,5 km/h (2 Bft) 1,00 h 0,00 h 9,2 km/h (2 Bft)
28.04.2011 17:00 22,9 C 17,9 C 3,2 UV-I 4,2 C 51 % 66 % 94 % 1013,8 hPa 0,0 l/m 8,5 km/h (2 Bft) 0,83 h 0,00 h 12,3 km/h (3 Bft)
28.04.2011 18:00 22,8 C 17,5 C 1,5 UV-I 0,9 C 51 % 65 % 26 % 1013,3 hPa 0,0 l/m 8,6 km/h (2 Bft) 0,00 h 0,00 h 10,4 km/h (2 Bft)
28.04.2011 19:00 22,2 C 16,8 C 0,5 UV-I 0,0 C 52 % 71 % 1 % 1013,0 hPa 0,0 l/m 10,3 km/h (2 Bft) 0,00 h 0,00 h 13,2 km/h (3 Bft)
28.04.2011 20:00 21,6 C 15,0 C 0,0 UV-I 0,0 C 54 % 75 % 0 % 1013,1 hPa 0,0 l/m 6,1 km/h (2 Bft) 0,00 h 0,17 h 7,7 km/h (2 Bft)
28.04.2011 21:00 21,0 C 13,8 C 0,0 UV-I 0,0 C 55 % 77 % 0 % 1013,1 hPa 0,0 l/m 1,1 km/h (1 Bft) 0,00 h 0,00 h 1,7 km/h (1 Bft)
28.04.2011 22:00 20,7 C 13,0 C 0,0 UV-I 0,0 C 55 % 79 % 0 % 1013,2 hPa 0,0 l/m 0,5 km/h (0 Bft) 0,00 h 0,00 h 1,0 km/h (0 Bft)
28.04.2011 23:00 20,3 C 11,6 C 0,0 UV-I 0,0 C 55 % 82 % 0 % 1012,7 hPa 0,0 l/m 0,0 km/h (0 Bft) 0,00 h 0,07 h 0,2 km/h (0 Bft)
29.04.2011 00:00 20,1 C 10,6 C 0,0 UV-I 0,0 C 55 % 85 % 0 % 1012,6 hPa 0,0 l/m 0,0 km/h (0 Bft) 0,00 h 0,00 h 0,0 km/h (0 Bft)
29.04.2011 01:00 19,9 C 10,0 C 0,0 UV-I 0,0 C 55 % 87 % 0 % 1012,4 hPa 0,0 l/m 0,2 km/h (0 Bft) 0,00 h 0,00 h 0,3 km/h (0 Bft)
29.04.2011 02:00 19,6 C 9,7 C 0,0 UV-I 0,0 C 56 % 89 % 0 % 1012,1 hPa 0,0 l/m 0,0 km/h (0 Bft) 0,00 h 0,00 h 0,0 km/h (0 Bft)
29.04.2011 03:00 19,5 C 9,1 C 0,0 UV-I 0,0 C 56 % 90 % 0 % 1011,9 hPa 0,0 l/m 0,0 km/h (0 Bft) 0,00 h 0,07 h 0,0 km/h (0 Bft)
29.04.2011 04:00 19,3 C 9,1 C 0,0 UV-I 0,0 C 56 % 91 % 0 % 1011,6 hPa 0,0 l/m 0,0 km/h (0 Bft) 0,00 h 0,03 h 0,0 km/h (0 Bft)
29.04.2011 05:00 19,2 C 11,2 C 0,0 UV-I 0,0 C 57 % 92 % 0 % 1011,4 hPa 0,0 l/m 1,3 km/h (1 Bft) 0,00 h 0,03 h 3,8 km/h (1 Bft)
29.04.2011 06:00 19,2 C 11,7 C 0,0 UV-I 0,0 C 58 % 91 % 0 % 1011,3 hPa 0,0 l/m 0,2 km/h (0 Bft) 0,00 h 0,00 h 1,3 km/h (1 Bft)
29.04.2011 07:00 19,3 C 12,1 C 0,2 UV-I 0,0 C 58 % 90 % 0 % 1011,5 hPa 0,0 l/m 0,5 km/h (0 Bft) 0,00 h 0,00 h 1,0 km/h (0 Bft)
29.04.2011 08:00 19,5 C 13,5 C 1,0 UV-I 1,1 C 58 % 88 % 31 % 1011,5 hPa 0,0 l/m 1,6 km/h (1 Bft) 0,00 h 0,00 h 3,9 km/h (1 Bft)
29.04.2011 09:00 19,7 C 15,5 C 2,8 UV-I 4,7 C 58 % 81 % 97 % 1011,8 hPa 0,0 l/m 2,0 km/h (1 Bft) 0,90 h 0,00 h 3,8 km/h (1 Bft)
29.04.2011 10:00 19,9 C 17,5 C 4,3 UV-I 6,1 C 58 % 71 % 100 % 1011,7 hPa 0,0 l/m 3,4 km/h (1 Bft) 1,00 h 0,00 h 5,0 km/h (1 Bft)
29.04.2011 11:00 20,1 C 19,4 C 5,3 UV-I 6,6 C 57 % 63 % 100 % 1011,3 hPa 0,0 l/m 4,7 km/h (1 Bft) 1,00 h 0,00 h 7,1 km/h (2 Bft)
29.04.2011 12:00 20,4 C 21,3 C 3,7 UV-I 6,1 C 57 % 55 % 100 % 1010,9 hPa 0,0 l/m 6,7 km/h (2 Bft) 1,00 h 0,10 h 8,4 km/h (2 Bft)
29.04.2011 13:00 21,1 C 22,9 C 5,6 UV-I 6,3 C 56 % 50 % 100 % 1010,5 hPa 0,0 l/m 6,8 km/h (2 Bft) 1,00 h 0,00 h 10,0 km/h (2 Bft)
29.04.2011 14:00 22,2 C 23,4 C 4,2 UV-I 3,9 C 53 % 44 % 88 % 1010,2 hPa 0,0 l/m 9,0 km/h (2 Bft) 0,77 h 0,00 h 14,8 km/h (3 Bft)
29.04.2011 15:00 22,8 C 23,5 C 4,2 UV-I 3,3 C 51 % 45 % 83 % 1009,9 hPa 0,0 l/m 8,7 km/h (2 Bft) 0,67 h 0,10 h 12,1 km/h (2 Bft)
29.04.2011 16:00 23,2 C 23,6 C 3,4 UV-I 2,3 C 50 % 42 % 61 % 1009,7 hPa 0,0 l/m 9,7 km/h (2 Bft) 0,43 h 0,07 h 12,0 km/h (2 Bft)
29.04.2011 17:00 23,7 C 22,8 C 2,3 UV-I 2,2 C 48 % 45 % 58 % 1009,4 hPa 0,9 l/m 10,1 km/h (2 Bft) 0,57 h 0,47 h 14,0 km/h (3 Bft)
29.04.2011 18:00 23,4 C 16,8 C 0,1 UV-I 0,0 C 49 % 67 % 0 % 1009,5 hPa 4,6 l/m 7,5 km/h (2 Bft) 0,00 h 1,00 h 10,6 km/h (2 Bft)
29.04.2011 19:00 22,7 C 14,7 C 0,1 UV-I 0,0 C 50 % 79 % 0 % 1009,1 hPa 2,7 l/m 3,3 km/h (1 Bft) 0,00 h 1,00 h 6,5 km/h (2 Bft)
29.04.2011 20:00 22,0 C 14,3 C 0,0 UV-I 0,0 C 53 % 83 % 0 % 1009,5 hPa 0,8 l/m 2,2 km/h (1 Bft) 0,00 h 1,00 h 3,2 km/h (1 Bft)
29.04.2011 21:00 21,5 C 14,6 C 0,0 UV-I 0,0 C 54 % 83 % 0 % 1010,0 hPa 0,7 l/m 1,9 km/h (1 Bft) 0,00 h 1,00 h 3,3 km/h (1 Bft)
29.04.2011 22:00 21,2 C 14,1 C 0,0 UV-I 0,0 C 55 % 83 % 0 % 1010,4 hPa 0,6 l/m 0,2 km/h (0 Bft) 0,00 h 0,93 h 0,7 km/h (0 Bft)
29.04.2011 23:00 21,0 C 14,8 C 0,0 UV-I 0,0 C 56 % 79 % 0 % 1010,5 hPa 0,4 l/m 3,7 km/h (1 Bft) 0,00 h 0,63 h 6,5 km/h (2 Bft)
30.04.2011 00:00 20,9 C 15,2 C 0,0 UV-I 0,0 C 56 % 75 % 0 % 1010,4 hPa 0,0 l/m 5,7 km/h (1 Bft) 0,00 h 0,00 h 7,7 km/h (2 Bft)
30.04.2011 01:00 20,8 C 14,8 C 0,0 UV-I 0,0 C 56 % 72 % 0 % 1010,4 hPa 0,0 l/m 6,6 km/h (2 Bft) 0,00 h 0,00 h 8,7 km/h (2 Bft)
30.04.2011 02:00 20,6 C 14,3 C 0,0 UV-I 0,0 C 56 % 73 % 0 % 1009,9 hPa 0,0 l/m 6,3 km/h (2 Bft) 0,00 h 0,00 h 7,7 km/h (2 Bft)
30.04.2011 03:00 20,5 C 13,6 C 0,0 UV-I 0,0 C 55 % 72 % 0 % 1009,9 hPa 0,0 l/m 3,9 km/h (1 Bft) 0,00 h 0,00 h 6,5 km/h (2 Bft)
30.04.2011 04:00 20,3 C 12,8 C 0,0 UV-I 0,0 C 55 % 72 % 0 % 1010,0 hPa 0,0 l/m 2,0 km/h (1 Bft) 0,00 h 0,00 h 3,5 km/h (1 Bft)
30.04.2011 05:00 20,2 C 12,0 C 0,0 UV-I 0,0 C 55 % 72 % 0 % 1009,9 hPa 0,0 l/m 2,0 km/h (1 Bft) 0,00 h 0,00 h 4,1 km/h (1 Bft)
30.04.2011 06:00 20,0 C 11,3 C 0,1 UV-I 0,0 C 55 % 72 % 0 % 1009,7 hPa 0,0 l/m 1,5 km/h (1 Bft) 0,00 h 0,00 h 3,3 km/h (1 Bft)
30.04.2011 07:00 20,0 C 11,2 C 0,5 UV-I 0,0 C 54 % 72 % 0 % 1010,0 hPa 0,0 l/m 1,7 km/h (1 Bft) 0,00 h 0,00 h 3,4 km/h (1 Bft)
30.04.2011 08:00 20,0 C 12,1 C 1,3 UV-I 1,9 C 54 % 71 % 48 % 1010,2 hPa 0,0 l/m 3,1 km/h (1 Bft) 0,40 h 0,07 h 5,2 km/h (1 Bft)
30.04.2011 09:00 20,0 C 14,1 C 3,6 UV-I 5,4 C 54 % 66 % 100 % 1009,9 hPa 0,0 l/m 4,9 km/h (1 Bft) 1,00 h 0,00 h 8,7 km/h (2 Bft)
30.04.2011 10:00 20,1 C 15,7 C 5,0 UV-I 6,0 C 53 % 61 % 100 % 1010,0 hPa 0,0 l/m 5,3 km/h (1 Bft) 1,00 h 0,00 h 7,4 km/h (2 Bft)
30.04.2011 11:00 20,4 C 17,6 C 6,7 UV-I 6,8 C 53 % 57 % 100 % 1010,0 hPa 0,0 l/m 6,6 km/h (2 Bft) 1,00 h 0,00 h 8,2 km/h (2 Bft)
30.04.2011 12:00 20,6 C 19,6 C 3,2 UV-I 6,3 C 52 % 52 % 100 % 1009,5 hPa 0,0 l/m 8,7 km/h (2 Bft) 1,00 h 0,00 h 10,9 km/h (2 Bft)
30.04.2011 13:00 21,3 C 20,8 C 5,4 UV-I 4,9 C 51 % 49 % 100 % 1009,2 hPa 0,0 l/m 9,6 km/h (2 Bft) 1,00 h 0,00 h 12,0 km/h (2 Bft)
30.04.2011 14:00 22,4 C 21,9 C 6,2 UV-I 4,8 C 49 % 46 % 100 % 1009,1 hPa 0,0 l/m 10,5 km/h (2 Bft) 1,00 h 0,00 h 13,2 km/h (3 Bft)
30.04.2011 15:00 23,4 C 22,6 C 6,2 UV-I 4,3 C 46 % 44 % 100 % 1009,0 hPa 0,0 l/m 12,4 km/h (3 Bft) 1,00 h 0,00 h 17,3 km/h (3 Bft)
30.04.2011 16:00 24,1 C 22,5 C 5,3 UV-I 3,5 C 45 % 44 % 96 % 1008,8 hPa 0,0 l/m 11,1 km/h (2 Bft) 1,00 h 0,00 h 13,3 km/h (3 Bft)
30.04.2011 17:00 24,3 C 21,8 C 3,1 UV-I 2,7 C 44 % 45 % 77 % 1008,5 hPa 0,0 l/m 10,8 km/h (2 Bft) 0,40 h 0,00 h 12,4 km/h (3 Bft)
30.04.2011 18:00 24,1 C 20,9 C 1,4 UV-I 0,5 C 44 % 46 % 13 % 1008,2 hPa 0,0 l/m 10,5 km/h (2 Bft) 0,00 h 0,00 h 14,0 km/h (3 Bft)
30.04.2011 19:00 23,5 C 19,7 C 0,7 UV-I 0,0 C 45 % 47 % 0 % 1008,1 hPa 0,0 l/m 10,3 km/h (2 Bft) 0,00 h 0,00 h 13,4 km/h (3 Bft)
30.04.2011 20:00 23,1 C 18,3 C 0,1 UV-I 0,0 C 46 % 46 % 0 % 1008,5 hPa 0,0 l/m 8,7 km/h (2 Bft) 0,00 h 0,00 h 11,3 km/h (2 Bft)
30.04.2011 21:00 22,5 C 17,1 C 0,0 UV-I 0,0 C 46 % 44 % 0 % 1008,9 hPa 0,0 l/m 7,0 km/h (2 Bft) 0,00 h 0,00 h 8,1 km/h (2 Bft)
30.04.2011 22:00 22,0 C 16,1 C 0,0 UV-I 0,0 C 47 % 46 % 0 % 1009,5 hPa 0,0 l/m 5,7 km/h (1 Bft) 0,00 h 0,00 h 7,8 km/h (2 Bft)
30.04.2011 23:00 21,6 C 15,1 C 0,0 UV-I 0,0 C 47 % 50 % 0 % 1010,0 hPa 0,0 l/m 2,7 km/h (1 Bft) 0,00 h 0,00 h 4,9 km/h (1 Bft)
01.05.2011 00:00 21,3 C 14,2 C 0,0 UV-I 0,0 C 48 % 52 % 0 % 1010,3 hPa 0,0 l/m 3,8 km/h (1 Bft) 0,00 h 0,00 h 6,0 km/h (2 Bft)
01.05.2011 01:00 21,1 C 13,3 C 0,0 UV-I 0,0 C 48 % 52 % 0 % 1010,3 hPa 0,0 l/m 4,0 km/h (1 Bft) 0,00 h 0,00 h 7,1 km/h (2 Bft)
01.05.2011 02:00 20,8 C 12,5 C 0,0 UV-I 0,0 C 48 % 51 % 0 % 1010,2 hPa 0,0 l/m 4,3 km/h (1 Bft) 0,00 h 0,00 h 6,5 km/h (2 Bft)
01.05.2011 03:00 20,6 C 11,4 C 0,0 UV-I 0,0 C 47 % 50 % 0 % 1010,0 hPa 0,0 l/m 3,0 km/h (1 Bft) 0,00 h 0,00 h 4,4 km/h (1 Bft)
01.05.2011 04:00 20,4 C 10,5 C 0,0 UV-I 0,0 C 46 % 52 % 0 % 1010,1 hPa 0,0 l/m 1,6 km/h (1 Bft) 0,00 h 0,00 h 3,1 km/h (1 Bft)
01.05.2011 05:00 20,2 C 9,6 C 0,0 UV-I 0,0 C 46 % 56 % 0 % 1010,2 hPa 0,0 l/m 0,8 km/h (0 Bft) 0,00 h 0,00 h 2,0 km/h (1 Bft)
01.05.2011 06:00 20,0 C 9,1 C 0,0 UV-I 0,0 C 46 % 60 % 0 % 1010,3 hPa 0,0 l/m 0,4 km/h (0 Bft) 0,00 h 0,00 h 1,9 km/h (1 Bft)
01.05.2011 07:00 19,9 C 9,1 C 0,0 UV-I 0,0 C 46 % 62 % 0 % 1010,5 hPa 0,0 l/m 1,1 km/h (1 Bft) 0,00 h 0,00 h 2,9 km/h (1 Bft)
01.05.2011 08:00 19,8 C 10,2 C 0,7 UV-I 2,3 C 46 % 59 % 51 % 1010,8 hPa 0,0 l/m 3,5 km/h (1 Bft) 0,47 h 0,00 h 5,5 km/h (1 Bft)
01.05.2011 09:00 19,8 C 11,9 C 3,5 UV-I 6,0 C 45 % 54 % 100 % 1010,9 hPa 0,0 l/m 5,4 km/h (1 Bft) 1,00 h 0,00 h 7,1 km/h (2 Bft)
01.05.2011 10:00 19,8 C 13,8 C 5,6 UV-I 6,8 C 45 % 51 % 100 % 1010,9 hPa 0,0 l/m 5,7 km/h (1 Bft) 1,00 h 0,00 h 8,1 km/h (2 Bft)
01.05.2011 11:00 20,0 C 15,3 C 7,4 UV-I 6,5 C 46 % 49 % 100 % 1011,0 hPa 0,0 l/m 8,6 km/h (2 Bft) 1,00 h 0,00 h 12,4 km/h (3 Bft)
01.05.2011 12:00 20,3 C 17,2 C 2,8 UV-I 6,3 C 45 % 46 % 100 % 1010,9 hPa 0,0 l/m 8,3 km/h (2 Bft) 1,00 h 0,00 h 10,3 km/h (2 Bft)
01.05.2011 13:00 21,0 C 18,8 C 6,4 UV-I 5,7 C 44 % 44 % 100 % 1011,0 hPa 0,0 l/m 8,8 km/h (2 Bft) 1,00 h 0,00 h 11,9 km/h (2 Bft)
01.05.2011 14:00 22,3 C 20,1 C 7,1 UV-I 5,1 C 42 % 40 % 100 % 1011,3 hPa 0,0 l/m 10,2 km/h (2 Bft) 1,00 h 0,00 h 13,3 km/h (3 Bft)
01.05.2011 15:00 23,5 C 20,8 C 7,2 UV-I 5,1 C 40 % 36 % 100 % 1011,4 hPa 0,0 l/m 9,7 km/h (2 Bft) 1,00 h 0,00 h 13,0 km/h (3 Bft)
01.05.2011 16:00 24,3 C 21,0 C 6,6 UV-I 4,7 C 38 % 34 % 100 % 1011,2 hPa 0,0 l/m 9,5 km/h (2 Bft) 1,00 h 0,00 h 12,3 km/h (3 Bft)
01.05.2011 17:00 24,8 C 20,1 C 3,2 UV-I 4,3 C 36 % 33 % 99 % 1011,3 hPa 0,0 l/m 9,3 km/h (2 Bft) 0,97 h 0,00 h 11,7 km/h (2 Bft)
01.05.2011 18:00 24,4 C 19,1 C 0,3 UV-I 0,7 C 36 % 33 % 21 % 1011,0 hPa 0,0 l/m 9,1 km/h (2 Bft) 0,00 h 0,00 h 10,9 km/h (2 Bft)
01.05.2011 19:00 23,7 C 17,8 C 0,1 UV-I 0,0 C 37 % 34 % 0 % 1010,5 hPa 0,0 l/m 8,1 km/h (2 Bft) 0,00 h 0,00 h 10,6 km/h (2 Bft)
01.05.2011 20:00 23,0 C 16,3 C 0,0 UV-I 0,0 C 38 % 36 % 0 % 1010,8 hPa 0,0 l/m 5,7 km/h (1 Bft) 0,00 h 0,00 h 7,1 km/h (2 Bft)
01.05.2011 21:00 22,4 C 14,8 C 0,0 UV-I 0,0 C 39 % 40 % 0 % 1011,0 hPa 0,0 l/m 3,5 km/h (1 Bft) 0,00 h 0,00 h 4,8 km/h (1 Bft)
01.05.2011 22:00 21,8 C 13,8 C 0,0 UV-I 0,0 C 40 % 44 % 0 % 1011,3 hPa 0,0 l/m 2,3 km/h (1 Bft) 0,00 h 0,00 h 5,2 km/h (1 Bft)
01.05.2011 23:00 21,4 C 12,9 C 0,0 UV-I 0,0 C 41 % 46 % 0 % 1011,6 hPa 0,0 l/m 2,1 km/h (1 Bft) 0,00 h 0,00 h 4,3 km/h (1 Bft)
Min-Datum _ 28.04.11 26.04.11 25.04.11 25.04.11 01.05.11 25.04.11 25.04.11 30.04.11 - 25.04.11 - - 25.04.11
_ Min-Zeit 06:26 06:48 00:00 00:00 17:26 16:30 00:00 18:46 - 00:00 - - 00:00
Minimum _ 19,0 C 7,7 C 0,0 UV-I 0,0 C 36 % 23 % 0 % 1007,9 hPa - 0,0 km/h (0 Bft) - - 0,0 km/h (0 Bft)
Max-Datum _ 25.04.11 25.04.11 25.04.11 25.04.11 29.04.11 28.04.11 25.04.11 26.04.11 29.04.11 29.04.11 25.04.11 26.04.11 29.04.11
_ Max-Zeit 17:20 16:58 11:12 10:06 05:54 04:28 08:36 12:36 18:46 17:36 08:34 16:04 17:38
Maximum _ 25,8 C 25,5 C 8,6 UV-I 7,6 C 58 % 93 % 100 % 1022,9 hPa 4,6 l/m 18,5 km/h
SO (3 Bft)
0,03 h 0,03 h 54,7 km/h
SO (7 Bft)
Durchschnitt _ 21,3 C 15,1 C 1,7 UV-I 1,7 C 49 % 63 % 32 % 1015,3 hPa #14,0 l/m 4,8 km/h (1 Bft) #48:30 h #12:06 h 6,6 km/h (2 Bft)
© 2012 W. Hausmann